createdAt,value
2023-05-19T00:00:28.621Z,80.89
2023-05-19T00:02:57.442Z,80.79
2023-05-19T00:05:28.125Z,81.11
2023-05-19T00:07:59.770Z,81.29
2023-05-19T00:10:31.634Z,81.31
2023-05-19T00:13:01.439Z,81.73
2023-05-19T00:15:28.152Z,81.96
2023-05-19T00:17:57.255Z,82.01
2023-05-19T00:20:25.880Z,82.30
2023-05-19T00:22:52.513Z,82.51
2023-05-19T00:25:19.017Z,82.34
2023-05-19T00:27:47.898Z,82.74
2023-05-19T00:30:14.729Z,82.96
2023-05-19T00:32:41.263Z,83.24
2023-05-19T00:35:08.240Z,83.22
2023-05-19T00:37:37.254Z,83.21
2023-05-19T00:40:06.895Z,83.06
2023-05-19T00:42:40.747Z,83.28
2023-05-19T00:45:07.919Z,83.15
2023-05-19T00:47:34.756Z,83.06
2023-05-19T00:50:03.917Z,83.41
2023-05-19T00:52:30.816Z,83.56
2023-05-19T00:55:02.354Z,83.72
2023-05-19T00:57:31.255Z,83.84
2023-05-19T01:00:04.075Z,84.22
2023-05-19T01:02:33.238Z,84.38
2023-05-19T01:05:02.892Z,84.64
2023-05-19T01:07:30.032Z,84.51
2023-05-19T01:09:56.574Z,84.47
2023-05-19T01:12:25.991Z,85.16
2023-05-19T01:14:52.611Z,85.31
2023-05-19T01:17:36.834Z,85.81
2023-05-19T01:20:06.662Z,85.62
2023-05-19T01:22:42.688Z,85.55
2023-05-19T01:25:13.006Z,85.75
2023-05-19T01:28:03.685Z,86.21
2023-05-19T01:30:33.922Z,85.93
2023-05-19T01:33:04.434Z,86.22
2023-05-19T01:35:34.184Z,86.42
2023-05-19T01:38:01.773Z,86.61
2023-05-19T01:40:30.173Z,86.78
2023-05-19T01:42:59.338Z,86.74
2023-05-19T01:45:28.452Z,86.84
2023-05-19T01:48:00.395Z,86.88
2023-05-19T01:50:33.216Z,86.83
2023-05-19T01:53:01.317Z,87.00
2023-05-19T01:55:30.788Z,87.64
2023-05-19T01:58:12.516Z,87.76
2023-05-19T02:01:22.622Z,87.89
2023-05-19T02:03:58.162Z,88.06
2023-05-19T02:06:39.240Z,88.06
2023-05-19T02:09:29.018Z,88.31
2023-05-19T02:12:02.920Z,88.42
2023-05-19T02:14:41.912Z,88.60
2023-05-19T02:17:09.438Z,88.49
2023-05-19T02:19:39.375Z,88.82
2023-05-19T02:22:08.534Z,88.71
2023-05-19T02:24:35.103Z,88.53
2023-05-19T02:27:01.626Z,89.02
2023-05-19T02:29:30.494Z,89.24
2023-05-19T02:31:57.015Z,88.75
2023-05-19T02:34:28.468Z,89.45
2023-05-19T02:36:57.740Z,89.50
2023-05-19T02:39:26.712Z,89.71
2023-05-19T02:41:58.224Z,89.88
2023-05-19T02:44:24.793Z,89.93
2023-05-19T02:46:53.854Z,90.16
2023-05-19T02:49:20.610Z,90.16
2023-05-19T02:51:49.478Z,90.11
2023-05-19T02:54:20.744Z,90.39
2023-05-19T02:56:49.522Z,90.28
2023-05-19T02:59:18.386Z,90.81
2023-05-19T03:01:47.668Z,90.37
2023-05-19T03:04:20.125Z,90.48
2023-05-19T03:06:49.108Z,90.86
2023-05-19T03:09:15.704Z,90.93
2023-05-19T03:11:44.807Z,90.89
2023-05-19T03:14:12.457Z,90.94
2023-05-19T03:16:41.219Z,90.79
2023-05-19T03:19:09.153Z,90.78
2023-05-19T03:21:35.756Z,90.87
2023-05-19T03:24:02.392Z,90.98
2023-05-19T03:26:32.512Z,90.65
2023-05-19T03:29:03.935Z,91.45
2023-05-19T03:31:30.621Z,91.75
2023-05-19T03:34:02.492Z,91.72
2023-05-19T03:36:41.192Z,91.84
2023-05-19T03:39:12.626Z,91.67
2023-05-19T03:41:39.132Z,92.06
2023-05-19T03:44:11.184Z,92.20
2023-05-19T03:46:37.739Z,91.83
2023-05-19T03:49:04.250Z,91.74
2023-05-19T03:51:36.685Z,91.71
2023-05-19T03:54:08.316Z,91.43
2023-05-19T03:56:39.708Z,91.16
2023-05-19T03:59:07.111Z,90.80
2023-05-19T04:01:36.569Z,90.99
2023-05-19T04:04:03.367Z,90.97
2023-05-19T04:06:33.908Z,91.36
2023-05-19T04:09:05.075Z,91.25
2023-05-19T04:11:37.288Z,91.24
2023-05-19T04:14:06.267Z,91.53
2023-05-19T04:16:37.882Z,91.24
2023-05-19T04:19:06.748Z,91.12
2023-05-19T04:21:33.694Z,91.18
2023-05-19T04:24:00.266Z,91.19
2023-05-19T04:26:30.841Z,90.90
2023-05-19T04:28:59.924Z,90.86
2023-05-19T04:31:27.483Z,91.05
2023-05-19T04:33:56.620Z,90.87
2023-05-19T04:36:25.755Z,91.03
2023-05-19T04:38:54.995Z,91.02
2023-05-19T04:41:23.862Z,90.92
2023-05-19T04:43:53.061Z,90.60
2023-05-19T04:46:25.981Z,90.68
2023-05-19T04:48:55.329Z,90.63
2023-05-19T04:51:30.315Z,90.63
2023-05-19T04:53:57.709Z,90.58
2023-05-19T04:56:24.274Z,90.50
2023-05-19T04:58:53.779Z,90.60
2023-05-19T05:01:22.679Z,90.72
2023-05-19T05:03:49.329Z,90.03
2023-05-19T05:06:16.310Z,86.15
2023-05-19T05:08:42.862Z,80.34
2023-05-19T05:11:12.152Z,72.98
2023-05-19T05:13:41.951Z,70.39
2023-05-19T05:16:10.288Z,65.91
2023-05-19T05:18:38.738Z,64.71
2023-05-19T05:21:07.044Z,61.95
2023-05-19T05:23:34.053Z,63.87
2023-05-19T05:26:09.352Z,61.68
2023-05-19T05:28:35.944Z,60.50
2023-05-19T05:31:05.172Z,60.98
2023-05-19T05:33:34.288Z,61.56
2023-05-19T05:36:05.913Z,60.97
2023-05-19T05:38:32.528Z,59.72
2023-05-19T05:41:02.649Z,58.56
2023-05-19T05:43:30.020Z,60.30
2023-05-19T05:45:57.307Z,61.44
2023-05-19T05:48:26.755Z,63.59
2023-05-19T05:50:55.553Z,61.35
2023-05-19T05:53:24.637Z,55.63
2023-05-19T05:55:53.806Z,52.58
2023-05-19T05:58:23.051Z,49.97
2023-05-19T06:00:51.518Z,46.39
2023-05-19T06:03:22.040Z,48.38
2023-05-19T06:05:48.760Z,52.68
2023-05-19T06:08:20.173Z,52.43
2023-05-19T06:10:47.497Z,51.68
2023-05-19T06:13:22.253Z,50.33
2023-05-19T06:15:48.795Z,50.61
2023-05-19T06:18:15.428Z,48.37
2023-05-19T06:20:42.071Z,48.79
2023-05-19T06:23:08.556Z,46.94
2023-05-19T06:25:39.849Z,47.12
2023-05-19T06:28:08.639Z,47.31
2023-05-19T06:30:36.687Z,47.95
2023-05-19T06:33:08.234Z,48.31
2023-05-19T06:35:34.870Z,49.57
2023-05-19T06:38:01.562Z,47.73
2023-05-19T06:40:30.545Z,43.75
2023-05-19T06:43:02.087Z,45.70
2023-05-19T06:45:31.167Z,44.36
2023-05-19T06:47:58.421Z,44.08
2023-05-19T06:50:28.449Z,43.34
2023-05-19T06:52:58.330Z,43.01
2023-05-19T06:55:27.261Z,41.36
2023-05-19T06:57:53.833Z,41.83
2023-05-19T07:00:23.976Z,45.65
2023-05-19T07:02:53.955Z,45.68
2023-05-19T07:05:22.913Z,44.21
2023-05-19T07:07:49.448Z,44.53
2023-05-19T07:10:16.587Z,46.75
2023-05-19T07:12:43.618Z,46.04
2023-05-19T07:15:10.539Z,47.45
2023-05-19T07:17:44.326Z,48.24
2023-05-19T07:20:13.515Z,47.00
2023-05-19T07:22:40.273Z,45.95
2023-05-19T07:25:09.828Z,43.89
2023-05-19T07:27:38.695Z,45.49
2023-05-19T07:30:05.729Z,44.36
2023-05-19T07:32:32.337Z,47.25
2023-05-19T07:34:59.214Z,46.28
2023-05-19T07:37:26.400Z,45.51
2023-05-19T07:39:53.151Z,46.06
2023-05-19T07:42:19.728Z,42.00
2023-05-19T07:44:46.429Z,41.11
2023-05-19T07:47:17.475Z,41.17
2023-05-19T07:49:44.043Z,39.28
2023-05-19T07:52:15.323Z,40.25
2023-05-19T07:54:41.905Z,40.90
2023-05-19T07:57:08.486Z,41.31
2023-05-19T07:59:37.287Z,40.95
2023-05-19T08:02:03.927Z,38.04
2023-05-19T08:04:30.653Z,38.89
2023-05-19T08:06:59.746Z,41.14
2023-05-19T08:09:28.795Z,40.46
2023-05-19T08:12:01.564Z,36.97
2023-05-19T08:14:28.150Z,41.00
2023-05-19T08:16:54.649Z,40.92
2023-05-19T08:19:23.877Z,40.68
2023-05-19T08:21:55.223Z,41.26
2023-05-19T08:24:24.062Z,42.02
2023-05-19T08:26:52.689Z,37.26
2023-05-19T08:29:19.311Z,39.05
2023-05-19T08:31:46.097Z,40.37
2023-05-19T08:34:15.434Z,38.21
2023-05-19T08:36:45.273Z,37.84
2023-05-19T08:39:13.516Z,39.49
2023-05-19T08:41:42.290Z,39.13
2023-05-19T08:44:10.041Z,37.89
2023-05-19T08:46:43.621Z,41.33
2023-05-19T08:49:25.379Z,38.74
2023-05-19T08:52:17.160Z,43.14
2023-05-19T08:54:51.124Z,37.71
2023-05-19T08:57:23.010Z,38.55
2023-05-19T08:59:55.409Z,38.03
2023-05-19T09:02:25.289Z,39.26
2023-05-19T09:04:52.766Z,40.48
2023-05-19T09:07:25.486Z,38.46
2023-05-19T09:09:52.023Z,38.31
2023-05-19T09:12:21.587Z,39.15
2023-05-19T09:14:50.536Z,39.57
2023-05-19T09:17:19.424Z,40.76
2023-05-19T09:19:49.333Z,41.95
2023-05-19T09:22:21.336Z,39.63
2023-05-19T09:24:48.427Z,40.46
2023-05-19T09:27:23.851Z,41.47
2023-05-19T09:29:50.969Z,40.05
2023-05-19T09:32:27.833Z,37.22
2023-05-19T09:34:55.108Z,40.00
2023-05-19T09:37:27.685Z,38.67
2023-05-19T09:39:57.208Z,39.02
2023-05-19T09:42:30.224Z,37.34
2023-05-19T09:45:02.970Z,37.45
2023-05-19T09:47:38.603Z,38.83
2023-05-19T09:50:08.939Z,43.67
2023-05-19T09:52:37.197Z,39.18
2023-05-19T09:55:12.715Z,38.58
2023-05-19T09:57:43.199Z,39.68
2023-05-19T10:00:18.489Z,36.58
2023-05-19T10:02:47.923Z,38.84
2023-05-19T10:05:17.656Z,38.40
2023-05-19T10:07:45.692Z,36.66
2023-05-19T10:10:14.004Z,41.25
2023-05-19T10:12:41.966Z,39.07
2023-05-19T10:15:15.930Z,39.21
2023-05-19T10:17:46.213Z,39.38
2023-05-19T10:20:17.112Z,39.71
2023-05-19T10:22:46.429Z,39.35
2023-05-19T10:25:15.209Z,38.42
2023-05-19T10:28:05.510Z,39.00
2023-05-19T10:30:34.631Z,38.23
2023-05-19T10:33:03.595Z,37.53
2023-05-19T10:35:54.418Z,36.40
2023-05-19T10:38:58.583Z,39.32
2023-05-19T10:41:46.982Z,37.86
2023-05-19T10:44:35.037Z,39.23
2023-05-19T10:47:01.676Z,37.88
2023-05-19T10:49:35.561Z,36.68
2023-05-19T10:52:04.344Z,35.19
2023-05-19T10:54:46.584Z,35.93
2023-05-19T10:57:20.568Z,37.75
2023-05-19T10:59:57.745Z,34.04
2023-05-19T11:02:37.825Z,37.50
2023-05-19T11:05:16.571Z,36.27
2023-05-19T11:07:45.025Z,36.69
2023-05-19T11:10:11.913Z,38.96
2023-05-19T11:12:43.352Z,35.85
2023-05-19T11:15:14.934Z,36.42
2023-05-19T11:17:49.001Z,36.39
2023-05-19T11:20:27.130Z,36.15
2023-05-19T11:23:11.332Z,34.88
2023-05-19T11:25:45.767Z,31.79
2023-05-19T11:28:15.674Z,35.44
2023-05-19T11:30:46.441Z,35.00
2023-05-19T11:33:13.855Z,37.07
2023-05-19T11:35:40.607Z,34.94
2023-05-19T11:38:07.340Z,36.54
2023-05-19T11:40:36.647Z,33.87
2023-05-19T11:43:03.283Z,34.97
2023-05-19T11:45:33.304Z,34.12
2023-05-19T11:48:03.141Z,36.88
2023-05-19T11:50:35.294Z,39.39
2023-05-19T11:53:04.136Z,39.13
2023-05-19T11:55:31.089Z,36.45
2023-05-19T11:58:05.595Z,36.01
2023-05-19T12:00:43.010Z,35.05
2023-05-19T12:03:10.563Z,34.00
2023-05-19T12:05:47.415Z,33.58
2023-05-19T12:08:14.796Z,33.56
2023-05-19T12:10:41.415Z,34.56
2023-05-19T12:13:11.004Z,34.55
2023-05-19T12:15:40.073Z,35.71
2023-05-19T12:18:12.193Z,35.35
2023-05-19T12:20:39.226Z,35.00
2023-05-19T12:23:08.832Z,34.01
2023-05-19T12:25:35.624Z,35.07
2023-05-19T12:28:05.442Z,36.79
2023-05-19T12:30:33.637Z,31.63
2023-05-19T12:33:04.299Z,33.60
2023-05-19T12:35:33.850Z,33.77
2023-05-19T12:38:07.046Z,33.58
2023-05-19T12:40:40.622Z,33.56
2023-05-19T12:43:09.880Z,29.88
2023-05-19T12:45:39.653Z,31.08
2023-05-19T12:48:15.953Z,30.58
2023-05-19T12:50:46.758Z,30.61
2023-05-19T12:53:14.461Z,33.76
2023-05-19T12:55:47.306Z,33.84
2023-05-19T12:58:15.764Z,36.69
2023-05-19T13:00:43.825Z,34.86
2023-05-19T13:03:22.751Z,36.73
2023-05-19T13:05:50.855Z,32.68
2023-05-19T13:08:21.404Z,30.47
2023-05-19T13:10:56.078Z,29.98
2023-05-19T13:13:25.176Z,30.66
2023-05-19T13:15:51.710Z,31.25
2023-05-19T13:18:20.662Z,30.70
2023-05-19T13:20:49.284Z,30.57
2023-05-19T13:23:16.193Z,30.53
2023-05-19T13:25:45.826Z,30.17
2023-05-19T13:28:12.796Z,32.64
2023-05-19T13:30:41.040Z,31.77
2023-05-19T13:33:07.939Z,32.05
2023-05-19T13:35:37.582Z,32.53
2023-05-19T13:38:07.921Z,33.01
2023-05-19T13:40:35.114Z,33.16
2023-05-19T13:43:02.807Z,34.50
2023-05-19T13:45:29.434Z,33.56
2023-05-19T13:47:56.455Z,32.77
2023-05-19T13:50:28.069Z,31.58
2023-05-19T13:52:54.650Z,33.52
2023-05-19T13:55:21.526Z,30.02
2023-05-19T13:57:48.044Z,31.37
2023-05-19T14:00:15.109Z,33.75
2023-05-19T14:02:42.495Z,32.60
2023-05-19T14:05:09.199Z,33.46
2023-05-19T14:07:38.396Z,34.21
2023-05-19T14:10:07.807Z,33.94
2023-05-19T14:13:04.798Z,34.47
2023-05-19T14:15:34.548Z,33.44
2023-05-19T14:18:01.364Z,32.33
2023-05-19T14:20:29.249Z,32.98
2023-05-19T14:23:00.794Z,32.65
2023-05-19T14:25:32.171Z,32.47
2023-05-19T14:27:58.702Z,35.15
2023-05-19T14:30:25.284Z,33.64
2023-05-19T14:32:54.321Z,33.89
2023-05-19T14:35:24.077Z,34.01
2023-05-19T14:37:51.247Z,33.76
2023-05-19T14:40:17.818Z,34.61
2023-05-19T14:42:44.396Z,34.22
2023-05-19T14:45:11.475Z,34.91
2023-05-19T14:47:38.061Z,35.55
2023-05-19T14:50:05.019Z,34.10
2023-05-19T14:52:31.510Z,33.87
2023-05-19T14:55:02.943Z,33.54
2023-05-19T14:57:34.447Z,35.26
2023-05-19T15:00:01.013Z,36.39
2023-05-19T15:02:29.549Z,35.53
2023-05-19T15:04:58.940Z,35.04
2023-05-19T15:07:27.803Z,35.20
2023-05-19T15:09:56.683Z,35.40
2023-05-19T15:12:25.408Z,35.17
2023-05-19T15:14:56.501Z,35.81
2023-05-19T15:17:25.541Z,34.85
2023-05-19T15:19:56.690Z,35.73
2023-05-19T15:22:23.482Z,35.54
2023-05-19T15:24:52.536Z,36.23
2023-05-19T15:27:19.204Z,35.16
2023-05-19T15:29:45.725Z,34.68
2023-05-19T15:32:12.342Z,36.47
2023-05-19T15:34:41.386Z,35.55
2023-05-19T15:37:07.913Z,35.25
2023-05-19T15:39:39.362Z,34.98
2023-05-19T15:42:06.097Z,35.29
2023-05-19T15:44:36.554Z,35.64
2023-05-19T15:47:06.142Z,36.54
2023-05-19T15:49:32.696Z,36.59
2023-05-19T15:52:04.171Z,36.74
2023-05-19T15:54:33.026Z,36.37
2023-05-19T15:56:59.533Z,35.89
2023-05-19T15:59:26.095Z,36.00
2023-05-19T16:01:53.242Z,37.07
2023-05-19T16:04:22.353Z,36.63
2023-05-19T16:06:51.459Z,38.95
2023-05-19T16:09:22.812Z,36.59
2023-05-19T16:11:51.872Z,35.80
2023-05-19T16:14:18.460Z,35.10
2023-05-19T16:16:45.012Z,34.58
2023-05-19T16:19:14.120Z,36.46
2023-05-19T16:21:40.700Z,35.59
2023-05-19T16:24:12.149Z,35.65
2023-05-19T16:26:38.669Z,35.80
2023-05-19T16:29:05.276Z,35.62
2023-05-19T16:31:31.859Z,36.18
2023-05-19T16:33:58.523Z,36.32
2023-05-19T16:36:25.061Z,38.47
2023-05-19T16:38:51.614Z,36.98
2023-05-19T16:41:18.107Z,36.70
2023-05-19T16:43:44.628Z,39.07
2023-05-19T16:46:13.780Z,38.02
2023-05-19T16:48:43.519Z,36.72
2023-05-19T16:51:10.023Z,36.31
2023-05-19T16:53:36.676Z,35.59
2023-05-19T16:56:06.237Z,36.68
2023-05-19T16:58:32.773Z,37.80
2023-05-19T17:01:04.074Z,37.90
2023-05-19T17:03:31.928Z,37.81
2023-05-19T17:05:58.632Z,37.95
2023-05-19T17:08:27.547Z,38.23
2023-05-19T17:10:56.554Z,40.03
2023-05-19T17:13:23.450Z,39.92
2023-05-19T17:15:53.331Z,40.28
2023-05-19T17:18:19.838Z,40.22
2023-05-19T17:20:46.329Z,38.89
2023-05-19T17:23:12.862Z,38.95
2023-05-19T17:25:41.852Z,38.35
2023-05-19T17:28:10.752Z,38.10
2023-05-19T17:30:42.296Z,37.04
2023-05-19T17:33:11.532Z,37.27
2023-05-19T17:35:41.400Z,38.50
2023-05-19T17:38:07.966Z,39.20
2023-05-19T17:40:35.743Z,39.42
2023-05-19T17:43:05.976Z,38.54
2023-05-19T17:45:32.502Z,39.07
2023-05-19T17:48:01.490Z,39.65
2023-05-19T17:50:30.179Z,38.10
2023-05-19T17:52:57.012Z,37.34
2023-05-19T17:55:29.816Z,37.40
2023-05-19T17:57:59.457Z,38.17
2023-05-19T18:00:28.613Z,37.78
2023-05-19T18:02:59.052Z,38.70
2023-05-19T18:05:26.615Z,39.04
2023-05-19T18:07:56.426Z,38.71
2023-05-19T18:10:25.742Z,39.45
2023-05-19T18:12:52.232Z,39.65
2023-05-19T18:15:21.067Z,39.96
2023-05-19T18:17:48.213Z,39.31
2023-05-19T18:20:17.347Z,41.08
2023-05-19T18:22:46.942Z,40.80
2023-05-19T18:25:17.050Z,40.95
2023-05-19T18:27:43.848Z,41.08
2023-05-19T18:30:10.839Z,41.62
2023-05-19T18:32:39.894Z,41.37
2023-05-19T18:35:09.290Z,41.21
2023-05-19T18:37:38.533Z,41.40
2023-05-19T18:40:05.810Z,41.37
2023-05-19T18:42:32.283Z,41.80
2023-05-19T18:44:58.802Z,42.13
2023-05-19T18:47:25.347Z,41.97
2023-05-19T18:49:51.850Z,42.57
2023-05-19T18:52:19.815Z,43.58
2023-05-19T18:54:47.145Z,44.57
2023-05-19T18:57:16.270Z,44.61
2023-05-19T18:59:47.605Z,44.64
2023-05-19T19:02:14.086Z,45.45
2023-05-19T19:04:42.894Z,45.25
2023-05-19T19:07:12.252Z,45.79
2023-05-19T19:09:39.541Z,45.27
2023-05-19T19:12:08.283Z,45.83
2023-05-19T19:14:39.343Z,46.07
2023-05-19T19:17:13.419Z,46.00
2023-05-19T19:19:40.206Z,46.69
2023-05-19T19:22:09.047Z,46.55
2023-05-19T19:24:35.841Z,47.98
2023-05-19T19:27:02.438Z,47.92
2023-05-19T19:29:31.992Z,48.02
2023-05-19T19:32:00.898Z,47.98
2023-05-19T19:34:27.459Z,48.28
2023-05-19T19:36:54.044Z,48.23
2023-05-19T19:39:23.867Z,48.79
2023-05-19T19:41:50.432Z,49.25
2023-05-19T19:44:19.259Z,49.25
2023-05-19T19:46:45.852Z,50.36
2023-05-19T19:49:12.371Z,51.20
2023-05-19T19:51:38.866Z,50.91
2023-05-19T19:54:10.344Z,50.58
2023-05-19T19:56:39.069Z,51.03
2023-05-19T19:59:08.028Z,50.72
2023-05-19T20:01:36.982Z,50.96
2023-05-19T20:04:08.240Z,51.23
2023-05-19T20:06:38.367Z,51.36
2023-05-19T20:09:05.253Z,51.58
2023-05-19T20:11:31.881Z,51.86
2023-05-19T20:14:03.168Z,52.00
2023-05-19T20:16:29.757Z,51.98
2023-05-19T20:18:56.475Z,52.13
2023-05-19T20:21:22.992Z,52.53
2023-05-19T20:23:51.714Z,52.60
2023-05-19T20:26:18.311Z,53.01
2023-05-19T20:28:46.406Z,53.48
2023-05-19T20:31:15.460Z,54.61
2023-05-19T20:33:42.055Z,55.01
2023-05-19T20:36:08.579Z,54.80
2023-05-19T20:38:35.072Z,55.26
2023-05-19T20:41:01.993Z,54.93
2023-05-19T20:43:31.826Z,55.59
2023-05-19T20:45:58.782Z,56.78
2023-05-19T20:48:25.773Z,57.52
2023-05-19T20:50:53.533Z,58.19
2023-05-19T20:53:21.480Z,59.15
2023-05-19T20:55:52.853Z,58.80
2023-05-19T20:58:19.343Z,60.73
2023-05-19T21:00:45.900Z,61.37
2023-05-19T21:03:14.927Z,62.48
2023-05-19T21:05:44.064Z,63.30
2023-05-19T21:08:13.651Z,64.07
2023-05-19T21:10:42.705Z,64.61
2023-05-19T21:13:12.150Z,65.40
2023-05-19T21:15:38.673Z,65.25
2023-05-19T21:18:08.419Z,65.99
2023-05-19T21:20:39.871Z,65.85
2023-05-19T21:23:06.380Z,66.16
2023-05-19T21:25:35.703Z,66.42
2023-05-19T21:28:02.212Z,66.82
2023-05-19T21:30:28.762Z,67.08
2023-05-19T21:32:57.974Z,67.53
2023-05-19T21:35:27.235Z,68.33
2023-05-19T21:37:56.538Z,68.21
2023-05-19T21:40:27.687Z,68.28
2023-05-19T21:42:54.232Z,67.79
2023-05-19T21:45:20.810Z,67.57
2023-05-19T21:47:47.401Z,67.52
2023-05-19T21:50:17.294Z,67.57
2023-05-19T21:52:46.045Z,67.24
2023-05-19T21:55:14.903Z,67.55
2023-05-19T21:57:43.683Z,67.79
2023-05-19T22:00:13.412Z,68.21
2023-05-19T22:02:40.533Z,68.00
2023-05-19T22:05:09.575Z,68.31
2023-05-19T22:07:38.221Z,67.94
2023-05-19T22:10:05.271Z,67.57
2023-05-19T22:12:32.642Z,67.29
2023-05-19T22:15:02.823Z,67.02
2023-05-19T22:17:31.909Z,66.47
2023-05-19T22:19:58.436Z,66.87
2023-05-19T22:22:27.291Z,67.20
2023-05-19T22:24:53.828Z,67.38
2023-05-19T22:27:22.708Z,66.64
2023-05-19T22:29:49.235Z,65.85
2023-05-19T22:32:19.531Z,65.87
2023-05-19T22:34:46.651Z,65.53
2023-05-19T22:37:13.319Z,65.70
2023-05-19T22:39:42.063Z,65.36
2023-05-19T22:42:11.074Z,65.58
2023-05-19T22:44:42.210Z,66.01
2023-05-19T22:47:13.955Z,66.36
2023-05-19T22:49:41.411Z,66.78
2023-05-19T22:52:11.369Z,66.93
2023-05-19T22:54:38.234Z,66.82
2023-05-19T22:57:05.164Z,67.25
2023-05-19T22:59:35.377Z,67.16
2023-05-19T23:02:02.041Z,67.39
2023-05-19T23:04:32.125Z,68.19
2023-05-19T23:07:01.205Z,68.19
2023-05-19T23:09:30.576Z,68.72
2023-05-19T23:11:57.113Z,68.80
2023-05-19T23:14:25.813Z,68.76
2023-05-19T23:16:52.422Z,68.89
2023-05-19T23:19:20.520Z,69.00
2023-05-19T23:21:48.981Z,69.59
2023-05-19T23:24:17.929Z,69.59
2023-05-19T23:26:46.687Z,69.88
2023-05-19T23:29:14.753Z,70.04
2023-05-19T23:31:41.649Z,70.44
2023-05-19T23:34:11.253Z,70.61
2023-05-19T23:36:37.856Z,70.95
2023-05-19T23:39:04.348Z,70.33
2023-05-19T23:41:33.215Z,70.72
2023-05-19T23:44:02.014Z,70.92
2023-05-19T23:46:31.407Z,71.13
2023-05-19T23:48:59.303Z,71.42
2023-05-19T23:51:28.081Z,71.35
2023-05-19T23:53:54.616Z,72.09
2023-05-19T23:56:21.726Z,72.15
2023-05-19T23:58:48.221Z,72.45
